FKKDFGSL

Guest
Details From FKKD - Douala
To FGSL - MALABO
Flight Number -
Tags generated
Created
Modified
Stats Distance 63 nm / 116 km
Max Altitude 200 ft / 61 m
Waypoints 3
Social Downloads 1
Likes 0
Share VATSIM

Download

Looking for another format? Having issues loading an existing format? Contact us
Advertisement - Login to hide

Notes

Basic altitude profile: - Ascent Rate: 2500ft/min - Ascent Speed: 250kts - Cruise Altitude: 35000ft - Cruise Speed: 420kts - Descent Rate: 1500ft/min - Descent Speed: 250kts Options: - Use NATs: yes - Use PACOTS: yes - Use low airways: yes - Use high airways: yes

Route

FKKD MBO FGSL

ID Type Via Altitude Latitude Longitude Leg Dist Tot Dist Heading (true) Name
O FKKD APT - 0 ft / 0 m 4.01421˚ 9.71654˚ - 0 nm - Douala
MBO VOR - 200 ft / 61 m 3.76822˚ 8.72025˚ 61 nm 61 nm 256° / 256° MALABO VOR-DME
O FGSL APT - 0 ft / 0 m 3.75527˚ 8.70872˚ 1 nm 62 nm 222° / 222° MALABO

Altitude Profile

Advertisement - Login to hide

FKKD

Details ICAO FKKD (DLA)
Name Douala
Region Cameroon
Timezone Africa/Douala (UTC+1.0)
Stats Elevation 33 ft / 10 m (AMSL)
Location 4.014208° 9.716538°
Runways 2
Magnetic Variation 1.105° W

METAR

FKKD 132200Z 13002KT 6000 BKN016 FEW020CB 26/25 Q1011 NOSIG

Decode

TAF

TAF FKKD 131700Z 1318/1424 VRB03KT 2000 HZ SCT016 BECMG 1321/1323 3000 BR BKN013 FEW016CB PROB30 1400/1406 TS PROB40 1404/1407 1200 BR BECMG 1407/1409 2500 HZ SCT016

Decode

Departure Runways

ID Width Length Bearing (true) Bearing (mag) Surface Threshold Offset Overrun Length
03 147 ft / 45 m 8,210 ft / 2,502 m 27.00° 28.11° Asphalt 350 ft / 107 m 0 ft / 0 m
12 148 ft / 45 m 9,363 ft / 2,854 m 116.94° 118.05° Asphalt 0 ft / 0 m 164 ft / 50 m
21 147 ft / 45 m 8,210 ft / 2,502 m 207.00° 208.11° Asphalt 350 ft / 107 m 0 ft / 0 m
30 148 ft / 45 m 9,363 ft / 2,854 m 296.94° 298.05° Asphalt 0 ft / 0 m 164 ft / 50 m

FGSL

Details ICAO FGSL (SSG)
Name MALABO
Region Equatorial Guinea
Timezone Africa/Malabo (UTC+1.0)
Stats Elevation 76 ft / 23 m (AMSL)
Location 3.755267° 8.708717°
Runways 1
Magnetic Variation 1.418° W

METAR

FGSL 132200Z 23006KT 7000 FEW010 26/24 Q1012 NOSIG

Decode

TAF

TAF TAF FGSL 131700Z 1318/1424 24006KT 6000 FEW012 TEMPO 1402/1409 3500 BR PROB30 1410/1418 4500 HZ

Decode

Destination Runways

ID Width Length Bearing (true) Bearing (mag) Surface Threshold Offset Overrun Length
05 151 ft / 46 m 9,642 ft / 2,939 m 41.72° 43.14° Concrete 0 ft / 0 m 0 ft / 0 m
23 151 ft / 46 m 9,642 ft / 2,939 m 221.72° 223.14° Concrete 0 ft / 0 m 161 ft / 49 m

Approach Navaids

Runway Type Ident Frequency Range Bearing (true) Bearing (mag) Slope Elevation
23 Localiser MBO 109.70 MHz 18 nm / 33 km 221.76° 223.18° - 76 ft / 23 m (AMSL)

Popular Alternatives